Time;durP1;ratioP1;P1;durP2;ratioP2;P2;SDS_P1;SDS_P2;PMS_P1;PMS_P2;Temp;Humidity;BMP_temperature;BMP_pressure;BME280_temperature;BME280_humidity;BME280_pressure;Samples;Min_cycle;Max_cycle;Signal;HPM_P1;HPM_P2
2021/09/12 00:02:25;;;;;;;16.55;12.75;;;;;;;12.77;72.99;99654.58;1711024;81;21787;-55
2021/09/12 00:04:52;;;;;;;20.27;15.63;;;;;;;12.78;72.89;99652.27;1714185;81;21113;-55
2021/09/12 00:07:20;;;;;;;22.02;15.68;;;;;;;12.78;72.81;99649.56;1704393;82;21404;-55
2021/09/12 00:09:46;;;;;;;18.32;15.35;;;;;;;12.75;72.80;99654.30;1737796;80;22122;-55
2021/09/12 00:12:13;;;;;;;19.45;17.07;;;;;;;12.72;73.07;99653.98;1735439;80;23032;-55
2021/09/12 00:14:39;;;;;;;23.98;17.48;;;;;;;12.69;73.33;99654.16;1739084;80;21087;-55
2021/09/12 00:17:06;;;;;;;17.52;15.58;;;;;;;12.67;73.52;99651.17;1737085;80;21092;-55
2021/09/12 00:19:33;;;;;;;24.72;14.10;;;;;;;12.66;73.48;99652.13;1736686;80;21488;-55
2021/09/12 00:22:01;;;;;;;20.95;15.30;;;;;;;12.65;73.40;99654.44;1735786;80;21017;-55
2021/09/12 00:24:27;;;;;;;17.62;13.72;;;;;;;12.64;73.55;99654.92;1739198;80;21025;-55
2021/09/12 00:26:54;;;;;;;18.40;14.28;;;;;;;12.64;73.66;99654.92;1737432;80;21109;-55
2021/09/12 00:29:20;;;;;;;17.05;14.70;;;;;;;12.66;73.62;99653.48;1739954;80;21033;-55
2021/09/12 00:31:48;;;;;;;24.85;17.05;;;;;;;12.67;73.43;99652.53;1738189;80;21054;-55
2021/09/12 00:34:14;;;;;;;20.70;15.40;;;;;;;12.66;73.46;99652.13;1741297;80;21445;-56
2021/09/12 00:36:41;;;;;;;23.57;19.77;;;;;;;12.65;73.52;99653.96;1739993;80;21153;-55
2021/09/12 00:39:07;;;;;;;28.00;19.70;;;;;;;12.66;73.43;99654.83;1738541;80;21143;-55
2021/09/12 00:41:39;;;;;;;21.68;19.27;;;;;;;12.65;73.26;99655.31;1737291;80;21065;-55
2021/09/12 00:44:09;;;;;;;22.75;17.87;;;;;;;12.61;73.30;99652.38;1742273;80;20938;-55
2021/09/12 00:46:34;;;;;;;19.20;17.05;;;;;;;12.57;73.29;99654.02;1740166;80;21365;-55
2021/09/12 00:49:00;;;;;;;21.25;16.10;;;;;;;12.55;73.28;99649.17;1739498;80;21609;-56
2021/09/12 00:51:27;;;;;;;25.50;16.70;;;;;;;12.53;73.28;99647.91;1737904;80;21112;-55
2021/09/12 00:53:54;;;;;;;21.30;16.87;;;;;;;12.50;73.32;99653.00;1740503;80;21551;-55
2021/09/12 00:56:21;;;;;;;22.02;17.55;;;;;;;12.49;73.41;99651.28;1736327;80;21652;-55
2021/09/12 00:58:47;;;;;;;25.45;19.90;;;;;;;12.49;73.45;99643.19;1736997;80;21057;-55
2021/09/12 01:01:14;;;;;;;28.23;20.68;;;;;;;12.48;73.36;99641.92;1737420;80;21057;-55
2021/09/12 01:03:40;;;;;;;22.70;18.00;;;;;;;12.47;73.26;99645.58;1736882;80;21150;-55
2021/09/12 01:06:06;;;;;;;21.70;17.75;;;;;;;12.45;73.29;99642.08;1687328;80;21077;-55
2021/09/12 01:08:34;;;;;;;21.95;17.20;;;;;;;12.42;73.46;99649.00;1748842;80;21073;-56
2021/09/12 01:11:01;;;;;;;19.57;15.88;;;;;;;12.39;73.38;99650.55;1695070;82;21133;-55
2021/09/12 01:13:28;;;;;;;17.37;13.93;;;;;;;12.34;73.32;99643.16;1752645;80;21109;-55
2021/09/12 01:15:54;;;;;;;17.35;14.35;;;;;;;12.30;73.20;99647.02;1753674;79;21121;-55
2021/09/12 01:18:20;;;;;;;19.73;12.85;;;;;;;12.26;73.31;99649.00;1755815;80;21078;-55
2021/09/12 01:20:46;;;;;;;20.17;13.18;;;;;;;12.25;73.34;99647.77;1754532;80;21043;-55
2021/09/12 01:23:14;;;;;;;17.00;13.83;;;;;;;12.23;73.37;99655.95;1695102;82;21319;-55
2021/09/12 01:25:42;;;;;;;17.40;14.23;;;;;;;12.22;73.42;99648.80;1754693;80;21307;-55
2021/09/12 01:28:10;;;;;;;17.07;15.30;;;;;;;12.22;73.48;99650.16;1752837;79;21698;-55
2021/09/12 01:30:37;;;;;;;22.98;16.23;;;;;;;12.23;73.38;99650.55;1709570;80;21026;-55
2021/09/12 01:33:03;;;;;;;20.55;17.20;;;;;;;12.22;73.30;99653.33;1754785;80;21129;-55
2021/09/12 01:35:29;;;;;;;19.65;17.57;;;;;;;12.19;73.28;99653.48;1755686;80;22345;-55
2021/09/12 01:37:56;;;;;;;22.42;17.27;;;;;;;12.16;73.25;99653.68;1756808;80;21117;-55
2021/09/12 01:40:22;;;;;;;23.55;16.10;;;;;;;12.13;73.32;99650.19;1755143;80;21018;-55
2021/09/12 01:42:48;;;;;;;17.82;15.40;;;;;;;12.11;73.40;99652.09;1756574;80;21069;-55
2021/09/12 01:45:16;;;;;;;19.30;15.13;;;;;;;12.11;73.36;99653.45;1759066;80;21362;-55
2021/09/12 01:47:46;;;;;;;20.48;16.00;;;;;;;12.10;73.36;99654.88;1758590;79;20914;-55
2021/09/12 01:50:11;;;;;;;19.02;15.63;;;;;;;12.09;73.34;99653.13;1756465;80;20919;-55
2021/09/12 01:52:37;;;;;;;20.05;15.28;;;;;;;12.08;73.34;99650.03;1758935;80;21339;-55
2021/09/12 01:55:05;;;;;;;23.47;15.38;;;;;;;12.08;73.38;99646.86;1756266;79;20919;-55
2021/09/12 01:57:32;;;;;;;22.20;18.70;;;;;;;12.07;73.38;99645.15;1719653;82;21631;-55
2021/09/12 01:59:58;;;;;;;26.30;19.67;;;;;;;12.07;73.26;99646.50;1753698;80;21567;-55
2021/09/12 02:02:24;;;;;;;23.22;17.80;;;;;;;12.06;73.19;99642.05;1754307;79;21050;-55
2021/09/12 02:04:51;;;;;;;20.40;18.40;;;;;;;12.04;73.19;99646.66;1757128;80;21136;-55
2021/09/12 02:07:17;;;;;;;26.90;15.65;;;;;;;12.02;73.21;99646.34;1754937;80;21084;-55
2021/09/12 02:09:44;;;;;;;24.63;16.12;;;;;;;11.98;73.21;99647.01;1738232;80;21030;-55
2021/09/12 02:12:12;;;;;;;23.35;15.83;;;;;;;11.95;73.28;99647.16;1734362;80;21059;-55
2021/09/12 02:14:38;;;;;;;19.90;15.40;;;;;;;11.94;73.34;99645.89;1739897;80;21093;-55
2021/09/12 02:17:06;;;;;;;20.72;14.90;;;;;;;11.92;73.37;99648.67;1736514;80;21416;-55
2021/09/12 02:19:34;;;;;;;21.02;15.25;;;;;;;11.91;73.40;99646.92;1740391;80;21038;-55
2021/09/12 02:22:01;;;;;;;22.60;16.48;;;;;;;11.91;73.51;99650.97;1735437;80;21580;-55
2021/09/12 02:24:29;;;;;;;24.40;17.70;;;;;;;11.93;73.58;99646.84;1735909;80;21899;-55
2021/09/12 02:26:55;;;;;;;21.65;18.82;;;;;;;11.93;73.55;99645.50;1736571;80;21559;-55
2021/09/12 02:29:23;;;;;;;22.52;19.00;;;;;;;11.91;73.49;99651.48;1736295;80;21503;-55
2021/09/12 02:31:50;;;;;;;24.00;18.35;;;;;;;11.88;73.52;99648.94;1737616;80;21046;-55
2021/09/12 02:34:17;;;;;;;20.43;16.27;;;;;;;11.86;73.52;99650.37;1734959;80;21061;-55
2021/09/12 02:36:43;;;;;;;19.05;14.63;;;;;;;11.85;73.51;99651.80;1738371;80;21066;-55
2021/09/12 02:39:10;;;;;;;20.08;15.90;;;;;;;11.83;73.53;99645.61;1737242;80;21085;-55
2021/09/12 02:41:36;;;;;;;23.15;14.33;;;;;;;11.82;73.55;99645.24;1737584;80;22330;-55
2021/09/12 02:44:04;;;;;;;19.80;15.85;;;;;;;11.81;73.57;99644.84;1737903;80;21702;-55
2021/09/12 02:46:31;;;;;;;20.62;16.07;;;;;;;11.80;73.61;99643.10;1737475;80;21053;-56
2021/09/12 02:48:59;;;;;;;18.82;16.50;;;;;;;11.78;73.75;99636.44;1736329;80;20986;-55
2021/09/12 02:51:27;;;;;;;20.50;16.57;;;;;;;11.79;73.80;99646.27;1735346;80;21057;-55
2021/09/12 02:53:53;;;;;;;20.65;17.42;;;;;;;11.76;73.83;99639.69;1735916;80;21109;-55
2021/09/12 02:56:21;;;;;;;18.85;17.00;;;;;;;11.74;73.82;99641.55;1735211;80;21077;-55
2021/09/12 02:58:49;;;;;;;17.37;14.53;;;;;;;11.71;73.80;99641.27;1736725;80;21112;-55
2021/09/12 03:01:17;;;;;;;16.65;13.80;;;;;;;11.70;73.85;99641.34;1736756;80;21063;-55
2021/09/12 03:03:45;;;;;;;18.37;14.13;;;;;;;11.68;73.80;99634.69;1734269;80;22700;-55
2021/09/12 03:06:11;;;;;;;18.20;14.80;;;;;;;11.67;73.78;99636.98;1736744;80;21135;-55
2021/09/12 03:08:39;;;;;;;17.00;14.40;;;;;;;11.65;73.80;99630.80;1741548;79;21077;-55
2021/09/12 03:11:05;;;;;;;18.98;15.30;;;;;;;11.65;73.88;99630.80;1753549;80;21085;-55
2021/09/12 03:13:33;;;;;;;20.27;18.00;;;;;;;11.64;73.93;99634.47;1752812;80;21081;-55
2021/09/12 03:16:00;;;;;;;21.37;17.20;;;;;;;11.64;73.93;99631.78;1712040;80;20903;-55
2021/09/12 03:18:26;;;;;;;18.05;16.15;;;;;;;11.63;73.88;99630.03;1758175;80;21150;-55
2021/09/12 03:20:54;;;;;;;20.40;16.97;;;;;;;11.61;73.95;99630.59;1757717;80;21512;-55
2021/09/12 03:23:21;;;;;;;18.63;15.07;;;;;;;11.59;73.96;99632.96;1759704;80;20940;-55
2021/09/12 03:25:49;;;;;;;18.87;13.85;;;;;;;11.58;73.99;99632.56;1755367;80;21280;-55
2021/09/12 03:28:17;;;;;;;16.20;14.30;;;;;;;11.58;74.07;99633.44;1756586;80;21497;-55
2021/09/12 03:30:43;;;;;;;15.45;13.80;;;;;;;11.58;74.20;99631.22;1755786;80;22475;-55
2021/09/12 03:33:14;;;;;;;16.70;12.35;;;;;;;11.58;74.28;99633.91;1753043;80;21452;-55
2021/09/12 03:35:39;;;;;;;15.40;12.78;;;;;;;11.58;74.30;99629.87;1758467;79;21090;-55
2021/09/12 03:38:05;;;;;;;16.30;14.45;;;;;;;11.58;74.30;99626.70;1756742;80;21752;-55
2021/09/12 03:40:31;;;;;;;17.67;14.75;;;;;;;11.60;74.35;99627.97;1754862;80;21053;-55
2021/09/12 03:42:57;;;;;;;18.70;16.40;;;;;;;11.60;74.31;99627.49;1753433;80;20970;-55
2021/09/12 03:45:24;;;;;;;32.38;16.17;;;;;;;11.61;74.25;99627.89;1718940;82;21058;-55
2021/09/12 03:47:50;;;;;;;18.27;15.23;;;;;;;11.62;74.29;99631.45;1752126;80;21105;-55
2021/09/12 03:50:18;;;;;;;16.93;14.80;;;;;;;11.61;74.28;99627.89;1756371;79;21054;-55
2021/09/12 03:52:45;;;;;;;15.48;13.48;;;;;;;11.61;74.32;99630.59;1691980;82;21353;-55
2021/09/12 03:55:11;;;;;;;16.52;14.47;;;;;;;11.61;74.43;99631.06;1755959;79;22033;-55
2021/09/12 03:57:37;;;;;;;15.60;12.85;;;;;;;11.63;74.57;99629.16;1751778;80;21401;-56
2021/09/12 04:00:07;;;;;;;15.32;13.78;;;;;;;11.65;74.76;99631.30;1756980;80;21096;-55
2021/09/12 04:02:36;;;;;;;17.77;12.98;;;;;;;11.69;74.91;99633.73;1753715;80;21375;-55
2021/09/12 04:05:02;;;;;;;17.45;14.23;;;;;;;11.73;75.04;99631.28;1753659;80;21658;-55
2021/09/12 04:07:30;;;;;;;18.27;15.43;;;;;;;11.77;75.18;99633.34;1754660;80;21540;-55
2021/09/12 04:09:56;;;;;;;23.75;17.20;;;;;;;11.81;75.34;99633.58;1763521;79;21053;-55
2021/09/12 04:12:22;;;;;;;19.57;17.07;;;;;;;11.85;75.47;99636.48;1763958;79;21077;-55
2021/09/12 04:14:49;;;;;;;16.17;14.60;;;;;;;11.89;75.58;99630.45;1705476;82;21065;-55
2021/09/12 04:17:16;;;;;;;16.50;14.40;;;;;;;11.92;75.69;99627.09;1763517;79;21191;-55
2021/09/12 04:19:42;;;;;;;18.65;14.47;;;;;;;11.97;75.84;99622.34;1765574;79;21105;-55
2021/09/12 04:22:09;;;;;;;14.87;13.30;;;;;;;12.01;75.96;99631.11;1762253;79;21090;-55
2021/09/12 04:24:36;;;;;;;17.42;14.73;;;;;;;12.07;76.13;99626.73;1764589;79;21049;-55
2021/09/12 04:27:05;;;;;;;13.88;12.50;;;;;;;12.13;76.34;99625.91;1763692;79;21093;-55
2021/09/12 04:29:31;;;;;;;19.20;14.60;;;;;;;12.23;76.49;99633.48;1763057;80;21559;-54
2021/09/12 04:31:58;;;;;;;23.60;16.40;;;;;;;12.31;76.60;99633.92;1723934;80;21537;-54
2021/09/12 04:34:24;;;;;;;17.67;15.50;;;;;;;12.37;76.78;99629.51;1760443;79;21124;-54
2021/09/12 04:36:51;;;;;;;18.77;16.10;;;;;;;12.47;77.01;99626.67;1764772;79;21033;-54
2021/09/12 04:39:17;;;;;;;18.37;15.15;;;;;;;12.61;77.34;99629.91;1759498;79;21057;-55
2021/09/12 04:41:44;;;;;;;16.37;14.60;;;;;;;12.78;77.47;99627.09;1764771;79;21420;-54
2021/09/12 04:44:10;;;;;;;17.10;13.88;;;;;;;12.94;77.36;99617.11;1761407;79;21166;-54
2021/09/12 04:46:37;;;;;;;14.15;12.65;;;;;;;13.08;77.23;99610.41;1759124;80;21066;-55
2021/09/12 04:49:03;;;;;;;18.52;14.45;;;;;;;13.20;77.14;99609.68;1759301;79;21097;-55
2021/09/12 04:51:31;;;;;;;16.62;14.40;;;;;;;13.30;77.11;99613.17;1760850;79;21124;-55
2021/09/12 04:53:58;;;;;;;16.95;15.18;;;;;;;13.40;77.08;99604.41;1759600;79;21050;-55
2021/09/12 04:56:25;;;;;;;19.82;17.62;;;;;;;13.50;77.10;99604.23;1763597;80;23301;-55
2021/09/12 04:58:53;;;;;;;20.82;18.52;;;;;;;13.59;77.16;99600.08;1762047;79;21117;-56
2021/09/12 05:01:21;;;;;;;20.40;17.90;;;;;;;13.69;77.18;99600.38;1762821;80;20987;-55
2021/09/12 05:03:49;;;;;;;23.67;18.85;;;;;;;13.78;77.27;99599.27;1761862;79;21407;-55
2021/09/12 05:06:15;;;;;;;19.40;15.98;;;;;;;13.88;77.45;99597.73;1761359;80;21177;-55
2021/09/12 05:08:42;;;;;;;17.15;14.80;;;;;;;13.99;77.55;99599.75;1753055;80;21100;-55
2021/09/12 05:11:10;;;;;;;19.25;16.52;;;;;;;14.11;77.71;99592.20;1716594;80;21105;-55
2021/09/12 05:13:38;;;;;;;17.57;15.88;;;;;;;14.35;77.99;99590.59;1713917;80;21137;-55
2021/09/12 05:16:05;;;;;;;16.87;15.03;;;;;;;14.35;77.99;99590.59;1715320;80;21034;-56
2021/09/12 05:18:33;;;;;;;17.42;15.43;;;;;;;14.49;78.11;99594.23;1715167;80;20967;-55
2021/09/12 05:20:59;;;;;;;25.08;17.42;;;;;;;14.62;78.25;99585.69;1716132;80;21133;-55
2021/09/12 05:23:26;;;;;;;18.12;15.48;;;;;;;14.76;78.35;99585.61;1716364;80;21037;-55
2021/09/12 05:25:52;;;;;;;16.55;14.55;;;;;;;14.91;78.31;99588.63;1714840;80;20958;-56
2021/09/12 05:28:19;;;;;;;16.42;13.75;;;;;;;15.07;78.23;99584.37;1712910;80;21315;-55
2021/09/12 05:30:47;;;;;;;18.32;13.83;;;;;;;15.24;78.31;99588.61;1713187;80;21082;-55
2021/09/12 05:33:13;;;;;;;20.00;18.00;;;;;;;15.40;78.23;99579.78;1714917;80;21142;-55
2021/09/12 05:35:40;;;;;;;18.75;15.38;;;;;;;15.57;77.96;99581.36;1717152;80;21132;-55
2021/09/12 05:38:06;;;;;;;17.67;15.78;;;;;;;15.73;77.96;99576.08;1720046;80;21093;-55
2021/09/12 05:40:33;;;;;;;15.95;14.03;;;;;;;15.89;77.45;99578.05;1717699;80;21332;-55
2021/09/12 05:42:59;;;;;;;14.63;13.13;;;;;;;16.07;77.12;99581.77;1713317;80;22512;-52
2021/09/12 05:45:25;;;;;;;11.38;10.28;;;;;;;16.21;76.33;99576.17;1716295;80;21117;-53
2021/09/12 05:47:52;;;;;;;12.25;10.95;;;;;;;16.39;75.63;99575.30;1715568;80;21114;-53
2021/09/12 05:50:19;;;;;;;15.30;10.43;;;;;;;16.55;75.07;99576.74;1716493;80;21133;-53
2021/09/12 05:52:47;;;;;;;15.25;11.33;;;;;;;16.73;74.48;99570.93;1713498;80;21060;-52
2021/09/12 05:55:14;;;;;;;14.65;12.45;;;;;;;16.89;73.89;99576.92;1714035;80;21100;-53
2021/09/12 05:57:40;;;;;;;13.13;11.75;;;;;;;17.03;73.25;99565.84;1711976;80;22986;-54
2021/09/12 06:00:09;;;;;;;14.68;13.15;;;;;;;17.18;72.87;99567.36;1713278;80;21369;-54
2021/09/12 06:02:36;;;;;;;14.38;13.00;;;;;;;17.32;72.59;99564.44;1716199;80;20880;-54
2021/09/12 06:05:04;;;;;;;12.45;10.93;;;;;;;17.45;72.12;99563.45;1716099;80;21388;-54
2021/09/12 06:07:31;;;;;;;10.75;9.85;;;;;;;17.57;71.33;99567.93;1715596;80;21078;-54
2021/09/12 06:09:59;;;;;;;10.80;9.73;;;;;;;17.70;70.47;99565.48;1737648;80;20891;-54
2021/09/12 06:12:26;;;;;;;11.03;10.05;;;;;;;17.84;69.58;99569.84;1757744;79;20987;-54
2021/09/12 06:14:52;;;;;;;13.55;10.72;;;;;;;17.98;69.28;99565.98;1755323;80;20946;-54
2021/09/12 06:17:18;;;;;;;11.08;10.00;;;;;;;18.09;68.79;99564.61;1757391;79;20940;-54
2021/09/12 06:19:48;;;;;;;14.73;12.43;;;;;;;18.21;68.36;99569.03;1756692;79;21006;-54
2021/09/12 06:22:15;;;;;;;12.70;11.48;;;;;;;18.33;67.76;99568.03;1758105;80;21158;-54
2021/09/12 06:24:41;;;;;;;13.80;11.05;;;;;;;18.43;67.10;99566.77;1753214;80;21065;-55
2021/09/12 06:27:09;;;;;;;12.15;10.65;;;;;;;18.53;66.64;99571.34;1755473;80;21657;-55
2021/09/12 06:29:36;;;;;;;12.98;11.45;;;;;;;18.64;66.42;99570.94;1756734;79;21547;-55
2021/09/12 06:32:02;;;;;;;11.35;10.20;;;;;;;18.73;65.98;99571.03;1752824;80;21046;-55
2021/09/12 06:34:29;;;;;;;16.45;10.95;;;;;;;18.82;65.63;99570.75;1758653;79;21090;-55
2021/09/12 06:36:56;;;;;;;12.43;10.78;;;;;;;18.92;65.52;99579.02;1751746;80;21054;-55
2021/09/12 06:39:24;;;;;;;11.15;10.05;;;;;;;19.01;64.97;99572.78;1759390;80;21100;-55
2021/09/12 06:41:50;;;;;;;10.82;9.85;;;;;;;19.12;64.77;99578.19;1755024;80;21093;-55
2021/09/12 06:44:17;;;;;;;15.03;10.58;;;;;;;19.21;64.56;99573.30;1758782;80;21101;-55
2021/09/12 06:46:43;;;;;;;11.90;10.72;;;;;;;19.32;64.34;99569.61;1761553;80;21145;-55
2021/09/12 06:49:10;;;;;;;14.87;10.72;;;;;;;19.43;64.53;99569.55;1701588;82;21097;-55
2021/09/12 06:51:37;;;;;;;13.00;10.32;;;;;;;19.53;63.89;99571.88;1757888;80;21053;-55
2021/09/12 06:54:03;;;;;;;11.12;10.08;;;;;;;19.64;63.78;99577.27;1756832;80;21114;-55
2021/09/12 06:56:30;;;;;;;11.18;10.08;;;;;;;19.72;63.59;99569.27;1756141;80;21050;-55
2021/09/12 06:58:56;;;;;;;14.25;10.40;;;;;;;19.82;63.62;99570.68;1754405;80;21117;-56
2021/09/12 07:01:23;;;;;;;9.13;8.13;;;;;;;19.90;62.71;99565.39;1758064;79;21073;-55
2021/09/12 07:03:49;;;;;;;8.20;7.50;;;;;;;19.98;62.08;99573.77;1761005;80;21003;-56
2021/09/12 07:06:15;;;;;;;9.98;7.03;;;;;;;20.05;61.17;99575.44;1760308;79;20972;-56
2021/09/12 07:08:42;;;;;;;7.67;7.00;;;;;;;20.10;60.61;99571.77;1758842;80;20926;-56
2021/09/12 07:11:13;;;;;;;6.20;5.80;;;;;;;20.16;59.62;99578.91;1764649;79;20962;-55
2021/09/12 07:13:38;;;;;;;8.33;6.65;;;;;;;20.24;59.54;99581.84;1730026;82;20934;-56
2021/09/12 07:16:04;;;;;;;6.97;6.40;;;;;;;20.32;59.39;99576.54;1765934;79;20912;-55
2021/09/12 07:18:32;;;;;;;7.05;6.37;;;;;;;20.39;58.73;99574.14;1766794;79;21432;-56
2021/09/12 07:20:58;;;;;;;9.98;6.00;;;;;;;20.45;57.87;99577.66;1767302;79;21535;-56
2021/09/12 07:23:25;;;;;;;7.25;6.75;;;;;;;20.53;58.03;99579.69;1764850;79;22069;-55
2021/09/12 07:25:51;;;;;;;7.03;6.42;;;;;;;20.61;57.86;99577.11;1770083;79;20907;-56
2021/09/12 07:28:17;;;;;;;9.63;6.78;;;;;;;20.68;57.62;99576.91;1765399;79;20970;-55
2021/09/12 07:30:44;;;;;;;6.83;6.33;;;;;;;20.74;57.54;99572.25;1765943;79;20945;-56
2021/09/12 07:33:11;;;;;;;8.10;7.40;;;;;;;20.81;57.53;99573.41;1767810;79;20915;-55
2021/09/12 07:35:38;;;;;;;10.05;8.20;;;;;;;20.89;57.55;99574.05;1766584;79;21097;-56
2021/09/12 07:38:04;;;;;;;8.68;7.87;;;;;;;20.96;57.04;99575.20;1763496;79;21029;-55
2021/09/12 07:40:32;;;;;;;7.45;6.87;;;;;;;21.00;56.32;99577.52;1764023;79;21026;-56
2021/09/12 07:43:00;;;;;;;7.87;7.15;;;;;;;21.06;56.22;99578.80;1766210;79;21104;-56
2021/09/12 07:45:26;;;;;;;8.85;8.00;;;;;;;21.12;55.66;99580.45;1768969;79;21489;-56
2021/09/12 07:47:53;;;;;;;9.60;8.00;;;;;;;21.18;55.04;99580.40;1767724;79;21112;-55
2021/09/12 07:50:19;;;;;;;7.90;7.30;;;;;;;21.23;54.81;99578.11;1763444;79;21101;-56
2021/09/12 07:52:45;;;;;;;9.53;8.00;;;;;;;21.29;55.15;99578.02;1762018;80;21101;-56
2021/09/12 07:55:15;;;;;;;8.25;7.45;;;;;;;21.35;54.65;99581.56;1765330;79;20958;-56
2021/09/12 07:57:41;;;;;;;8.05;7.17;;;;;;;21.41;54.44;99580.97;1762991;79;21065;-55
2021/09/12 08:00:09;;;;;;;7.25;6.70;;;;;;;21.46;54.05;99575.39;1759476;79;23304;-56
2021/09/12 08:02:38;;;;;;;9.55;7.65;;;;;;;21.53;54.58;99579.27;1765641;79;21120;-56
2021/09/12 08:05:06;;;;;;;8.50;7.80;;;;;;;21.62;54.22;99583.50;1731840;82;21097;-56
2021/09/12 08:07:32;;;;;;;8.75;7.92;;;;;;;21.69;53.40;99575.91;1766393;79;21045;-56
2021/09/12 08:09:59;;;;;;;25.02;6.10;;;;;;;21.74;53.66;99570.86;1762188;80;21062;-56
2021/09/12 08:12:27;;;;;;;8.63;5.60;;;;;;;21.82;53.64;99568.23;1735602;80;21093;-56
2021/09/12 08:14:53;;;;;;;9.03;7.60;;;;;;;21.90;52.71;99571.09;1751231;80;21014;-56
2021/09/12 08:17:20;;;;;;;7.45;6.58;;;;;;;21.98;52.28;99568.13;1757173;80;21459;-56
2021/09/12 08:19:46;;;;;;;5.67;5.15;;;;;;;22.04;52.04;99569.75;1754684;80;21607;-56
2021/09/12 08:22:12;;;;;;;7.10;5.85;;;;;;;22.10;51.31;99566.94;1757227;80;21093;-56
2021/09/12 08:24:38;;;;;;;5.62;5.33;;;;;;;22.13;49.43;99562.50;1757648;79;21401;-56
2021/09/12 08:27:06;;;;;;;6.87;5.83;;;;;;;22.15;50.06;99561.34;1756715;79;21186;-56
2021/09/12 08:29:32;;;;;;;5.87;5.35;;;;;;;22.19;50.11;99564.66;1758119;79;20972;-56
2021/09/12 08:32:00;;;;;;;4.17;3.20;;;;;;;22.24;49.11;99571.91;1755960;80;22782;-56
2021/09/12 08:34:27;;;;;;;6.87;4.00;;;;;;;22.27;48.06;99566.13;1757085;79;21612;-56
2021/09/12 08:36:53;;;;;;;6.15;5.55;;;;;;;22.32;47.58;99562.91;1758180;79;21562;-56
2021/09/12 08:39:20;;;;;;;5.67;5.22;;;;;;;22.33;47.71;99561.39;1755299;80;21038;-56
2021/09/12 08:41:46;;;;;;;6.15;4.92;;;;;;;22.40;47.76;99567.98;1756541;80;21089;-56
2021/09/12 08:44:18;;;;;;;5.28;4.58;;;;;;;22.44;47.55;99561.19;1753701;80;21084;-56
2021/09/12 08:46:46;;;;;;;5.97;5.55;;;;;;;22.48;47.81;99564.47;1755277;80;22381;-56
2021/09/12 08:49:12;;;;;;;6.05;5.40;;;;;;;22.53;47.08;99566.27;1756639;80;21706;-56
2021/09/12 08:51:38;;;;;;;6.80;5.67;;;;;;;22.54;46.61;99566.08;1759572;80;20962;-56
2021/09/12 08:54:05;;;;;;;5.10;4.60;;;;;;;22.56;46.39;99568.67;1759413;80;21066;-56
2021/09/12 08:56:31;;;;;;;5.42;4.87;;;;;;;22.60;46.54;99565.48;1758187;80;21053;-56
2021/09/12 08:58:58;;;;;;;5.20;4.70;;;;;;;22.65;46.94;99561.76;1756383;80;21078;-56
2021/09/12 09:01:36;;;;;;;5.70;5.30;;;;;;;22.72;47.09;99558.38;1759432;80;21373;-56
2021/09/12 09:04:03;;;;;;;5.53;4.58;;;;;;;22.76;46.39;99558.47;1754893;80;21570;-55
2021/09/12 09:06:35;;;;;;;6.00;5.12;;;;;;;22.81;46.18;99561.59;1755943;80;21072;-55
2021/09/12 09:09:04;;;;;;;4.42;4.10;;;;;;;22.83;45.97;99553.57;1755514;79;21089;-55
2021/09/12 09:11:37;;;;;;;4.78;4.35;;;;;;;22.88;45.88;99562.72;1761995;80;22259;-55
2021/09/12 09:14:18;;;;;;;5.60;5.17;;;;;;;22.92;46.14;99558.13;1768974;80;21488;-55
2021/09/12 09:16:47;;;;;;;5.12;4.80;;;;;;;22.99;45.96;99561.09;1765329;80;21082;-55
2021/09/12 09:19:14;;;;;;;6.55;5.35;;;;;;;23.03;46.29;99557.03;1766944;79;21033;-55
2021/09/12 09:21:42;;;;;;;7.70;6.05;;;;;;;23.06;46.23;99562.18;1761274;79;21407;-55
2021/09/12 09:24:29;;;;;;;6.12;5.47;;;;;;;23.09;45.86;99552.77;1763789;79;21105;-55
2021/09/12 09:27:07;;;;;;;5.55;4.10;;;;;;;23.10;46.07;99553.13;1760650;80;22686;-55
2021/09/12 09:29:32;;;;;;;5.62;5.22;;;;;;;23.13;45.40;99548.71;1759973;79;21071;-54
2021/09/12 09:32:14;;;;;;;7.83;5.05;;;;;;;23.18;45.08;99551.83;1764034;80;21053;-55
2021/09/12 09:34:44;;;;;;;6.85;5.20;;;;;;;23.19;44.67;99548.93;1761915;79;21053;-55
2021/09/12 09:37:20;;;;;;;6.08;5.25;;;;;;;23.21;44.86;99544.66;1765670;79;20989;-55
2021/09/12 09:39:48;;;;;;;;;;;;;;;23.21;44.80;99540.03;1770634;79;21526;-55
2021/09/12 09:42:36;;;;;;;8.53;5.45;;;;;;;23.24;45.00;99536.94;1766206;79;20650;-55
2021/09/12 09:45:08;;;;;;;5.40;5.00;;;;;;;23.30;44.51;99544.56;1766520;79;21381;-56
2021/09/12 09:47:35;;;;;;;8.60;4.55;;;;;;;23.37;44.33;99534.66;1768336;80;21363;-56
2021/09/12 09:50:18;;;;;;;5.15;4.83;;;;;;;23.45;44.80;99541.23;1769526;80;20942;-56
2021/09/12 09:52:50;;;;;;;8.30;5.28;;;;;;;23.52;44.50;99542.33;1767781;80;21093;-56
2021/09/12 09:55:19;;;;;;;9.55;5.58;;;;;;;23.58;43.83;99540.30;1764334;79;21428;-56
2021/09/12 09:57:47;;;;;;;5.53;5.03;;;;;;;23.61;43.98;99544.11;1768629;79;20977;-55
2021/09/12 10:00:14;;;;;;;5.17;4.87;;;;;;;23.64;43.84;99537.80;1768238;79;20960;-56
2021/09/12 10:02:41;;;;;;;6.40;5.37;;;;;;;23.67;44.53;99528.34;1766552;79;20986;-55
2021/09/12 10:05:09;;;;;;;6.03;5.53;;;;;;;23.71;44.38;99533.88;1767613;79;20914;-55
2021/09/12 10:07:38;;;;;;;9.05;5.25;;;;;;;23.72;44.55;99525.48;1765431;79;20954;-56
2021/09/12 10:10:08;;;;;;;7.12;5.25;;;;;;;23.74;44.41;99527.52;1768164;80;21026;-56
2021/09/12 10:12:38;;;;;;;5.22;4.78;;;;;;;23.77;43.89;99527.72;1769172;80;20970;-55
2021/09/12 10:15:10;;;;;;;4.80;4.45;;;;;;;23.78;44.32;99530.82;1769207;79;20908;-56
2021/09/12 10:17:36;;;;;;;5.60;5.30;;;;;;;23.81;44.09;99532.39;1767859;79;21090;-56
2021/09/12 10:20:11;;;;;;;7.92;4.40;;;;;;;23.84;43.61;99532.05;1767438;80;20903;-56
2021/09/12 10:23:03;;;;;;;6.20;5.65;;;;;;;23.87;44.20;99534.48;1767253;79;20879;-56
2021/09/12 10:25:53;;;;;;;5.55;5.12;;;;;;;23.88;43.93;99532.95;1768312;79;21404;-56
2021/09/12 10:28:36;;;;;;;5.80;5.30;;;;;;;23.88;43.82;99527.45;1738892;79;20981;-56
2021/09/12 10:31:28;;;;;;;6.87;4.28;;;;;;;23.90;43.45;99522.66;1767551;79;21581;-56
2021/09/12 10:34:10;;;;;;;5.65;5.25;;;;;;;23.90;42.91;99516.30;1767425;80;21463;-56
2021/09/12 10:36:40;;;;;;;5.65;5.25;;;;;;;23.90;42.54;99521.80;1762035;79;21049;-55
2021/09/12 10:39:35;;;;;;;6.50;5.40;;;;;;;23.87;42.67;99516.10;1760065;79;21524;-56
2021/09/12 10:42:16;;;;;;;5.50;5.05;;;;;;;23.85;42.88;99514.02;1761288;79;21078;-56
2021/09/12 10:44:42;;;;;;;4.37;3.95;;;;;;;23.86;43.30;99512.14;1760399;79;21147;-56
2021/09/12 10:47:11;;;;;;;5.33;4.60;;;;;;;23.91;43.50;99517.98;1768311;79;21038;-55
2021/09/12 10:49:39;;;;;;;4.55;4.15;;;;;;;23.96;44.05;99515.12;1766161;80;20938;-56
2021/09/12 10:52:10;;;;;;;5.22;4.83;;;;;;;24.02;42.88;99506.71;1766657;79;20867;-56
2021/09/12 10:55:08;;;;;;;6.83;4.95;;;;;;;24.07;43.06;99505.17;1767703;79;20925;-56
2021/09/12 10:57:36;;;;;;;6.25;5.78;;;;;;;24.14;43.76;99503.52;1767149;79;21102;-55
2021/09/12 11:00:06;;;;;;;7.15;5.45;;;;;;;24.19;43.34;99503.51;1764796;79;21076;-56
2021/09/12 11:02:33;;;;;;;6.55;4.92;;;;;;;24.20;43.02;99499.73;1764672;79;21069;-56
2021/09/12 11:04:59;;;;;;;4.70;4.30;;;;;;;24.21;43.37;99500.12;1765726;79;21151;-56
2021/09/12 11:07:25;;;;;;;5.80;5.28;;;;;;;24.21;43.41;99502.36;1760021;79;21042;-56
2021/09/12 11:09:52;;;;;;;4.85;4.55;;;;;;;24.22;42.33;99507.34;1763532;80;21078;-56
2021/09/12 11:12:19;;;;;;;5.70;4.83;;;;;;;24.18;41.57;99507.28;1699797;82;21146;-56
2021/09/12 11:14:47;;;;;;;5.92;4.95;;;;;;;24.16;41.52;99506.61;1711783;80;21080;-56
2021/09/12 11:17:14;;;;;;;5.30;4.90;;;;;;;24.17;41.56;99502.81;1758193;80;21101;-56
2021/09/12 11:19:52;;;;;;;5.58;4.83;;;;;;;24.17;41.89;99499.55;1753861;80;21126;-56
2021/09/12 11:22:20;;;;;;;5.25;4.60;;;;;;;24.18;41.88;99494.91;1753063;80;21109;-56
2021/09/12 11:25:28;;;;;;;4.45;4.15;;;;;;;24.23;42.23;99498.07;1777971;78;22644;-55
2021/09/12 11:28:06;;;;;;;5.28;4.75;;;;;;;24.19;42.73;99496.63;1732546;80;22330;-56
2021/09/12 11:30:37;;;;;;;3.98;3.77;;;;;;;24.17;41.80;99495.93;1702148;81;21186;-56